createdAt,value
2018-03-21T00:02:03.986Z,5.80
2018-03-21T00:04:32.794Z,6.40
2018-03-21T00:07:01.650Z,5.87
2018-03-21T00:09:30.469Z,6.13
2018-03-21T00:11:59.267Z,6.33
2018-03-21T00:14:28.084Z,6.80
2018-03-21T00:16:56.889Z,6.13
2018-03-21T00:19:25.731Z,5.57
2018-03-21T00:21:54.514Z,5.70
2018-03-21T00:24:23.318Z,5.37
2018-03-21T00:26:52.121Z,5.30
2018-03-21T00:29:20.911Z,5.47
2018-03-21T00:31:49.794Z,5.50
2018-03-21T00:34:18.579Z,5.03
2018-03-21T00:36:47.475Z,4.13
2018-03-21T00:39:16.259Z,4.30
2018-03-21T00:41:45.058Z,4.83
2018-03-21T00:44:13.839Z,4.53
2018-03-21T00:46:42.641Z,4.30
2018-03-21T00:49:11.445Z,4.77
2018-03-21T00:51:40.255Z,4.13
2018-03-21T00:54:09.063Z,4.23
2018-03-21T00:56:38.747Z,4.20
2018-03-21T00:59:07.563Z,4.37
2018-03-21T01:01:36.347Z,3.97
2018-03-21T01:04:05.222Z,3.97
2018-03-21T01:06:34.127Z,4.23
2018-03-21T01:09:02.923Z,4.50
2018-03-21T01:11:31.807Z,4.40
2018-03-21T01:14:00.621Z,4.20
2018-03-21T01:16:29.406Z,4.40
2018-03-21T01:18:58.354Z,4.37
2018-03-21T01:21:27.153Z,4.00
2018-03-21T01:23:56.042Z,3.77
2018-03-21T01:26:24.829Z,3.90
2018-03-21T01:28:53.629Z,3.90
2018-03-21T01:31:22.430Z,3.67
2018-03-21T01:33:51.214Z,3.43
2018-03-21T01:36:20.026Z,3.77
2018-03-21T01:38:48.822Z,4.07
2018-03-21T01:41:17.654Z,3.60
2018-03-21T01:43:46.467Z,3.87
2018-03-21T01:46:15.262Z,4.33
2018-03-21T01:48:44.078Z,3.70
2018-03-21T01:51:12.846Z,3.90
2018-03-21T01:53:41.656Z,3.90
2018-03-21T01:56:10.459Z,3.80
2018-03-21T01:58:39.266Z,4.03
2018-03-21T02:01:08.159Z,3.77
2018-03-21T02:03:36.945Z,4.03
2018-03-21T02:06:05.763Z,3.97
2018-03-21T02:08:34.571Z,4.13
2018-03-21T02:11:03.371Z,4.10
2018-03-21T02:13:32.187Z,4.17
2018-03-21T02:16:01.034Z,3.70
2018-03-21T02:18:29.822Z,4.03
2018-03-21T02:20:58.637Z,3.87
2018-03-21T02:23:27.585Z,4.23
2018-03-21T02:25:56.382Z,3.93
2018-03-21T02:28:25.178Z,3.87
2018-03-21T02:30:54.083Z,3.93
2018-03-21T02:33:22.870Z,3.73
2018-03-21T02:35:51.750Z,3.93
2018-03-21T02:38:20.526Z,4.00
2018-03-21T02:40:49.466Z,3.73
2018-03-21T02:43:18.251Z,3.53
2018-03-21T02:45:47.070Z,3.83
2018-03-21T02:48:15.958Z,3.70
2018-03-21T02:50:44.761Z,4.33
2018-03-21T02:53:13.539Z,3.77
2018-03-21T02:55:42.431Z,3.50
2018-03-21T02:58:11.215Z,4.10
2018-03-21T03:00:40.018Z,4.17
2018-03-21T03:03:08.805Z,4.80
2018-03-21T03:05:37.614Z,4.20
2018-03-21T03:08:06.392Z,4.03
2018-03-21T03:10:35.210Z,4.30
2018-03-21T03:13:04.010Z,4.27
2018-03-21T03:15:32.792Z,3.90
2018-03-21T03:18:01.636Z,4.37
2018-03-21T03:20:30.415Z,4.10
2018-03-21T03:22:59.231Z,4.20
2018-03-21T03:25:28.020Z,3.77
2018-03-21T03:27:56.802Z,4.57
2018-03-21T03:30:25.634Z,4.50
2018-03-21T03:32:54.530Z,3.87
2018-03-21T03:35:23.311Z,4.60
2018-03-21T03:37:52.215Z,4.73
2018-03-21T03:40:21.010Z,4.20
2018-03-21T03:42:49.802Z,4.10
2018-03-21T03:45:18.697Z,4.80
2018-03-21T03:47:47.483Z,4.10
2018-03-21T03:50:16.979Z,4.37
2018-03-21T03:52:45.793Z,4.37
2018-03-21T03:55:14.580Z,3.90
2018-03-21T03:57:43.386Z,4.27
2018-03-21T04:00:12.180Z,4.33
2018-03-21T04:02:40.998Z,5.20
2018-03-21T04:05:09.861Z,4.30
2018-03-21T04:07:38.675Z,4.60
2018-03-21T04:10:07.469Z,5.10
2018-03-21T04:12:36.255Z,4.37
2018-03-21T04:15:05.071Z,4.43
2018-03-21T04:17:33.925Z,4.90
2018-03-21T04:20:02.712Z,4.70
2018-03-21T04:22:31.514Z,5.30
2018-03-21T04:25:00.327Z,4.97
2018-03-21T04:27:29.208Z,4.73
2018-03-21T04:29:58.010Z,4.43
2018-03-21T04:32:27.190Z,4.90
2018-03-21T04:34:56.086Z,4.83
2018-03-21T04:37:24.875Z,4.87
2018-03-21T04:39:53.651Z,4.87
2018-03-21T04:42:22.463Z,5.10
2018-03-21T04:44:51.245Z,5.27
2018-03-21T04:47:20.051Z,5.20
2018-03-21T04:49:48.847Z,5.23
2018-03-21T04:52:17.636Z,4.83
2018-03-21T04:54:46.442Z,4.73
2018-03-21T04:57:15.242Z,6.23
2018-03-21T04:59:44.031Z,5.90
2018-03-21T05:02:12.831Z,5.57
2018-03-21T05:04:41.629Z,5.50
2018-03-21T05:07:10.422Z,5.50
2018-03-21T05:09:39.291Z,5.43
2018-03-21T05:12:08.193Z,5.73
2018-03-21T05:14:36.990Z,5.43
2018-03-21T05:17:05.871Z,5.20
2018-03-21T05:19:34.678Z,5.43
2018-03-21T05:22:03.466Z,9.20
2018-03-21T05:24:32.271Z,8.20
2018-03-21T05:27:01.146Z,6.90
2018-03-21T05:29:29.953Z,6.00
2018-03-21T05:31:58.758Z,6.23
2018-03-21T05:34:27.563Z,6.73
2018-03-21T05:36:56.386Z,5.90
2018-03-21T05:39:25.178Z,6.17
2018-03-21T05:41:53.982Z,6.33
2018-03-21T05:44:22.766Z,6.27
2018-03-21T05:46:51.690Z,6.27
2018-03-21T05:49:20.529Z,6.70
2018-03-21T05:51:49.402Z,6.97
2018-03-21T05:54:18.628Z,6.33
2018-03-21T05:56:47.437Z,6.13
2018-03-21T05:59:16.218Z,6.90
2018-03-21T06:01:45.066Z,6.97
2018-03-21T06:04:13.913Z,6.90
2018-03-21T06:06:42.674Z,7.70
2018-03-21T06:09:11.487Z,7.33
2018-03-21T06:11:40.333Z,7.10
2018-03-21T06:14:09.137Z,6.80
2018-03-21T06:16:38.022Z,7.10
2018-03-21T06:19:06.830Z,6.63
2018-03-21T06:21:35.712Z,7.23
2018-03-21T06:24:04.677Z,6.67
2018-03-21T06:26:33.457Z,6.50
2018-03-21T06:29:02.285Z,7.20
2018-03-21T06:31:31.186Z,6.43
2018-03-21T06:33:59.982Z,7.43
2018-03-21T06:36:28.877Z,7.60
2018-03-21T06:38:58.102Z,9.07
2018-03-21T06:41:26.893Z,7.70
2018-03-21T06:43:55.694Z,7.33
2018-03-21T06:46:25.858Z,7.00
2018-03-21T06:48:54.667Z,6.83
2018-03-21T06:51:23.451Z,7.13
2018-03-21T06:53:52.257Z,6.87
2018-03-21T06:56:21.062Z,6.77
2018-03-21T06:58:49.855Z,7.20
2018-03-21T07:01:18.670Z,7.27
2018-03-21T07:03:47.465Z,6.97
2018-03-21T07:06:16.276Z,7.57
2018-03-21T07:08:45.059Z,7.30
2018-03-21T07:11:13.921Z,6.70
2018-03-21T07:13:48.654Z,7.07
2018-03-21T07:16:23.355Z,6.50
2018-03-21T07:18:52.136Z,7.07
2018-03-21T07:21:20.942Z,7.20
2018-03-21T07:23:49.754Z,6.90
2018-03-21T07:26:18.554Z,7.17
2018-03-21T07:28:47.346Z,7.17
2018-03-21T07:31:16.162Z,6.70
2018-03-21T07:33:44.946Z,7.27
2018-03-21T07:36:13.794Z,7.07
2018-03-21T07:38:42.543Z,6.00
2018-03-21T07:41:11.331Z,5.93
2018-03-21T07:43:40.202Z,5.87
2018-03-21T07:46:08.998Z,5.70
2018-03-21T07:48:38.214Z,5.63
2018-03-21T07:51:06.997Z,6.00
2018-03-21T07:53:35.799Z,4.93
2018-03-21T07:56:04.622Z,5.00
2018-03-21T07:58:33.811Z,4.87
2018-03-21T08:01:02.670Z,5.60
2018-03-21T08:03:31.488Z,5.30
2018-03-21T08:06:00.385Z,5.13
2018-03-21T08:08:29.240Z,5.10
2018-03-21T08:10:58.059Z,5.17
2018-03-21T08:13:26.847Z,5.43
2018-03-21T08:15:55.743Z,4.93
2018-03-21T08:18:24.550Z,4.90
2018-03-21T08:20:53.440Z,5.10
2018-03-21T08:23:22.250Z,4.00
2018-03-21T08:25:51.050Z,3.93
2018-03-21T08:28:19.834Z,4.30
2018-03-21T08:30:48.639Z,3.57
2018-03-21T08:33:17.455Z,4.13
2018-03-21T08:35:46.279Z,3.87
2018-03-21T08:38:15.070Z,3.70
2018-03-21T08:40:43.875Z,3.33
2018-03-21T08:43:12.761Z,3.37
2018-03-21T08:45:41.553Z,3.80
2018-03-21T08:48:10.403Z,3.53
2018-03-21T08:50:39.159Z,3.43
2018-03-21T08:53:08.036Z,3.40
2018-03-21T08:55:36.986Z,3.77
2018-03-21T08:58:05.826Z,3.67
2018-03-21T09:00:34.722Z,3.37
2018-03-21T09:03:03.539Z,3.10
2018-03-21T09:05:32.320Z,3.07
2018-03-21T09:08:01.107Z,2.70
2018-03-21T09:10:29.922Z,2.90
2018-03-21T09:12:58.747Z,2.70
2018-03-21T09:15:27.519Z,3.30
2018-03-21T09:17:56.373Z,3.50
2018-03-21T09:20:25.167Z,3.80
2018-03-21T09:22:53.978Z,3.63
2018-03-21T09:25:22.781Z,3.73
2018-03-21T09:27:51.582Z,4.10
2018-03-21T09:30:20.391Z,3.47
2018-03-21T09:32:49.187Z,3.10
2018-03-21T09:35:17.975Z,3.37
2018-03-21T09:37:46.826Z,3.50
2018-03-21T09:40:15.627Z,3.47
2018-03-21T09:42:44.434Z,3.07
2018-03-21T09:45:13.226Z,2.93
2018-03-21T09:47:42.011Z,2.93
2018-03-21T09:50:10.814Z,2.80
2018-03-21T09:52:39.681Z,2.70
2018-03-21T09:55:08.490Z,2.23
2018-03-21T09:57:37.368Z,2.40
2018-03-21T10:00:06.263Z,2.47
2018-03-21T10:02:35.154Z,2.60
2018-03-21T10:05:03.965Z,2.80
2018-03-21T10:07:32.842Z,3.27
2018-03-21T10:10:01.649Z,2.87
2018-03-21T10:12:30.461Z,3.10
2018-03-21T10:14:59.250Z,3.30
2018-03-21T10:17:28.067Z,2.70
2018-03-21T10:19:56.919Z,2.90
2018-03-21T10:22:25.747Z,2.90
2018-03-21T10:24:54.536Z,3.03
2018-03-21T10:27:23.322Z,3.27
2018-03-21T10:29:52.130Z,3.63
2018-03-21T10:32:20.992Z,3.10
2018-03-21T10:34:49.874Z,3.40
2018-03-21T10:37:18.670Z,3.53
2018-03-21T10:39:47.562Z,3.37
2018-03-21T10:42:16.358Z,3.37
2018-03-21T10:44:45.151Z,3.13
2018-03-21T10:47:13.951Z,3.70
2018-03-21T10:49:42.736Z,3.27
2018-03-21T10:52:11.542Z,3.63
2018-03-21T10:54:40.328Z,3.33
2018-03-21T10:57:09.212Z,3.80
2018-03-21T10:59:38.014Z,3.10
2018-03-21T11:02:12.448Z,3.17
2018-03-21T11:04:41.248Z,3.10
2018-03-21T11:07:10.043Z,3.27
2018-03-21T11:09:38.906Z,3.47
2018-03-21T11:12:07.713Z,3.47
2018-03-21T11:14:36.489Z,3.20
2018-03-21T11:17:05.281Z,3.20
2018-03-21T11:19:34.089Z,2.80
2018-03-21T11:22:02.885Z,3.00
2018-03-21T11:24:31.661Z,3.63
2018-03-21T11:27:00.558Z,3.63
2018-03-21T11:29:29.346Z,3.27
2018-03-21T11:31:58.241Z,3.47
2018-03-21T11:34:27.046Z,3.40
2018-03-21T11:36:56.246Z,3.47
2018-03-21T11:39:25.142Z,3.37
2018-03-21T11:41:53.926Z,3.17
2018-03-21T11:44:22.730Z,3.23
2018-03-21T11:46:51.522Z,3.20
2018-03-21T11:49:20.326Z,2.97
2018-03-21T11:51:49.423Z,3.20
2018-03-21T11:54:18.232Z,3.27
2018-03-21T11:56:47.167Z,3.50
2018-03-21T11:59:15.990Z,3.47
2018-03-21T12:01:44.810Z,3.03
2018-03-21T12:04:14.334Z,3.23
2018-03-21T12:06:43.139Z,3.00
2018-03-21T12:09:11.982Z,2.80
2018-03-21T12:11:40.891Z,2.80
2018-03-21T12:14:09.768Z,3.00
2018-03-21T12:16:38.663Z,2.73
2018-03-21T12:19:07.462Z,2.70
2018-03-21T12:21:36.271Z,2.50
2018-03-21T12:24:05.150Z,2.67
2018-03-21T12:26:33.938Z,2.53
2018-03-21T12:29:02.743Z,2.60
2018-03-21T12:31:31.550Z,2.43
2018-03-21T12:34:01.287Z,2.37
2018-03-21T12:36:30.134Z,2.70
2018-03-21T12:38:59.026Z,2.63
2018-03-21T12:41:27.924Z,2.60
2018-03-21T12:43:56.714Z,2.70
2018-03-21T12:46:25.521Z,2.40
2018-03-21T12:48:54.320Z,2.60
2018-03-21T12:51:23.195Z,2.80
2018-03-21T12:53:52.001Z,2.63
2018-03-21T12:56:20.860Z,2.70
2018-03-21T12:58:49.978Z,2.40
2018-03-21T13:01:18.786Z,2.60
2018-03-21T13:03:48.182Z,2.60
2018-03-21T13:06:16.992Z,2.53
2018-03-21T13:08:45.811Z,2.43
2018-03-21T13:11:14.614Z,2.60
2018-03-21T13:13:43.424Z,2.40
2018-03-21T13:16:12.260Z,2.60
2018-03-21T13:18:41.018Z,2.43
2018-03-21T13:21:09.868Z,2.20
2018-03-21T13:23:38.641Z,2.60
2018-03-21T13:26:07.539Z,2.40
2018-03-21T13:28:36.335Z,2.70
2018-03-21T13:31:07.940Z,2.50
2018-03-21T13:33:36.728Z,2.57
2018-03-21T13:36:05.539Z,2.77
2018-03-21T13:38:34.640Z,2.47
2018-03-21T13:41:03.434Z,2.60
2018-03-21T13:43:32.360Z,2.40
2018-03-21T13:46:01.250Z,2.63
2018-03-21T13:48:30.246Z,2.70
2018-03-21T13:50:59.041Z,2.73
2018-03-21T13:53:27.849Z,2.77
2018-03-21T13:55:56.638Z,2.73
2018-03-21T13:58:25.514Z,2.53
2018-03-21T14:00:54.407Z,2.40
2018-03-21T14:03:23.217Z,2.37
2018-03-21T14:05:52.110Z,2.23
2018-03-21T14:08:20.894Z,2.10
2018-03-21T14:10:49.682Z,2.20
2018-03-21T14:13:18.583Z,2.07
2018-03-21T14:15:47.372Z,2.40
2018-03-21T14:18:16.179Z,2.13
2018-03-21T14:20:44.976Z,2.47
2018-03-21T14:23:13.778Z,2.27
2018-03-21T14:25:42.571Z,1.97
2018-03-21T14:28:11.434Z,2.00
2018-03-21T14:30:40.230Z,2.03
2018-03-21T14:33:09.013Z,2.20
2018-03-21T14:35:37.818Z,2.17
2018-03-21T14:38:06.631Z,2.20
2018-03-21T14:40:35.426Z,2.10
2018-03-21T14:43:04.247Z,1.73
2018-03-21T14:45:33.067Z,1.70
2018-03-21T14:48:01.858Z,1.80
2018-03-21T14:50:30.667Z,2.00
2018-03-21T14:52:59.472Z,1.90
2018-03-21T14:55:28.362Z,1.90
2018-03-21T14:57:57.154Z,1.83
2018-03-21T15:00:26.054Z,1.73
2018-03-21T15:02:54.942Z,1.90
2018-03-21T15:05:23.758Z,2.03
2018-03-21T15:07:52.554Z,1.70
2018-03-21T15:10:21.321Z,1.83
2018-03-21T15:12:50.115Z,2.07
2018-03-21T15:15:18.910Z,2.17
2018-03-21T15:17:47.699Z,1.60
2018-03-21T15:20:16.498Z,1.77
2018-03-21T15:22:45.290Z,1.63
2018-03-21T15:25:14.809Z,1.60
2018-03-21T15:27:43.600Z,1.70
2018-03-21T15:30:12.421Z,1.70
2018-03-21T15:32:41.207Z,1.67
2018-03-21T15:35:09.998Z,1.63
2018-03-21T15:37:38.858Z,1.80
2018-03-21T15:40:07.675Z,1.70
2018-03-21T15:42:36.451Z,1.80
2018-03-21T15:45:05.237Z,1.63
2018-03-21T15:47:34.052Z,1.80
2018-03-21T15:50:02.891Z,2.00
2018-03-21T15:52:31.714Z,1.70
2018-03-21T15:55:00.535Z,1.90
2018-03-21T15:57:29.414Z,2.00
2018-03-21T15:59:58.207Z,1.60
2018-03-21T16:02:27.017Z,1.77
2018-03-21T16:04:55.811Z,1.53
2018-03-21T16:07:24.763Z,1.50
2018-03-21T16:09:53.574Z,3.20
2018-03-21T16:12:22.378Z,2.10
2018-03-21T16:14:51.268Z,1.70
2018-03-21T16:17:20.077Z,1.77
2018-03-21T16:19:48.953Z,1.77
2018-03-21T16:22:17.764Z,1.53
2018-03-21T16:24:46.567Z,1.50
2018-03-21T16:27:15.382Z,1.40
2018-03-21T16:29:44.196Z,1.50
2018-03-21T16:32:13.021Z,1.60
2018-03-21T16:34:41.826Z,1.50
2018-03-21T16:37:11.214Z,1.40
2018-03-21T16:39:40.031Z,1.53
2018-03-21T16:42:08.912Z,1.50
2018-03-21T16:44:37.839Z,1.20
2018-03-21T16:47:07.421Z,1.40
2018-03-21T16:49:36.211Z,1.23
2018-03-21T16:52:05.004Z,1.33
2018-03-21T16:54:34.321Z,1.30
2018-03-21T16:57:03.101Z,1.30
2018-03-21T16:59:31.911Z,1.17
2018-03-21T17:02:00.699Z,1.27
2018-03-21T17:04:29.583Z,1.37
2018-03-21T17:06:58.391Z,1.23
2018-03-21T17:09:27.202Z,1.50
2018-03-21T17:11:56.006Z,1.20
2018-03-21T17:14:24.816Z,1.10
2018-03-21T17:16:53.594Z,1.50
2018-03-21T17:19:22.438Z,1.60
2018-03-21T17:21:51.329Z,1.50
2018-03-21T17:24:20.142Z,1.37
2018-03-21T17:26:48.988Z,1.47
2018-03-21T17:29:17.754Z,1.27
2018-03-21T17:31:46.606Z,1.30
2018-03-21T17:34:15.411Z,1.10
2018-03-21T17:36:44.237Z,1.30
2018-03-21T17:39:13.036Z,4.03
2018-03-21T17:41:41.821Z,3.33
2018-03-21T17:44:10.622Z,2.00
2018-03-21T17:46:39.437Z,1.80
2018-03-21T17:49:08.197Z,1.50
2018-03-21T17:51:37.018Z,1.40
2018-03-21T17:54:05.837Z,1.40
2018-03-21T17:56:34.614Z,1.33
2018-03-21T17:59:03.431Z,1.50
2018-03-21T18:01:32.225Z,1.47
2018-03-21T18:04:01.026Z,1.50
2018-03-21T18:06:29.834Z,1.53
2018-03-21T18:08:58.619Z,1.60
2018-03-21T18:11:27.498Z,1.50
2018-03-21T18:13:56.394Z,1.43
2018-03-21T18:16:25.282Z,1.20
2018-03-21T18:18:54.095Z,1.60
2018-03-21T18:21:22.904Z,1.13
2018-03-21T18:23:51.709Z,1.33
2018-03-21T18:26:20.659Z,1.40
2018-03-21T18:28:49.453Z,1.23
2018-03-21T18:31:18.247Z,1.20
2018-03-21T18:33:47.062Z,1.20
2018-03-21T18:36:15.908Z,1.20
2018-03-21T18:38:44.726Z,1.27
2018-03-21T18:41:13.537Z,1.60
2018-03-21T18:43:42.329Z,1.50
2018-03-21T18:46:11.138Z,1.50
2018-03-21T18:48:39.968Z,1.60
2018-03-21T18:51:08.801Z,1.63
2018-03-21T18:53:37.719Z,1.77
2018-03-21T18:56:07.063Z,1.77
2018-03-21T18:58:35.922Z,1.90
2018-03-21T19:01:04.727Z,2.83
2018-03-21T19:03:33.540Z,3.70
2018-03-21T19:06:02.319Z,3.43
2018-03-21T19:08:31.122Z,3.17
2018-03-21T19:10:59.928Z,3.20
2018-03-21T19:13:28.733Z,2.90
2018-03-21T19:15:57.644Z,2.37
2018-03-21T19:18:26.640Z,3.17
2018-03-21T19:20:55.537Z,3.07
2018-03-21T19:23:24.354Z,3.00
2018-03-21T19:25:53.223Z,2.90
2018-03-21T19:28:22.022Z,2.80
2018-03-21T19:30:50.826Z,2.70
2018-03-21T19:33:19.706Z,2.40
2018-03-21T19:35:48.489Z,2.70
2018-03-21T19:38:17.278Z,2.80
2018-03-21T19:40:46.178Z,3.10
2018-03-21T19:43:14.993Z,3.07
2018-03-21T19:45:43.826Z,2.60
2018-03-21T19:48:12.585Z,2.83
2018-03-21T19:50:41.377Z,3.17
2018-03-21T19:53:10.171Z,2.97
2018-03-21T19:55:39.060Z,2.60
2018-03-21T19:58:07.859Z,3.07
2018-03-21T20:00:36.918Z,3.63
2018-03-21T20:03:05.747Z,4.10
2018-03-21T20:05:34.660Z,3.73
2018-03-21T20:08:03.519Z,3.07
2018-03-21T20:10:32.410Z,3.60
2018-03-21T20:13:01.211Z,3.30
2018-03-21T20:15:30.023Z,3.17
2018-03-21T20:17:58.802Z,3.40
2018-03-21T20:20:27.690Z,3.60
2018-03-21T20:22:56.578Z,3.33
2018-03-21T20:25:25.389Z,3.23
2018-03-21T20:27:54.174Z,3.73
2018-03-21T20:30:23.063Z,3.60
2018-03-21T20:32:51.863Z,3.47
2018-03-21T20:35:20.659Z,3.77
2018-03-21T20:37:49.473Z,3.53
2018-03-21T20:40:18.759Z,4.10
2018-03-21T20:42:47.562Z,3.93
2018-03-21T20:45:16.370Z,3.70
2018-03-21T20:47:45.174Z,5.07
2018-03-21T20:50:14.007Z,4.80
2018-03-21T20:52:42.800Z,4.90
2018-03-21T20:55:11.586Z,4.90
2018-03-21T20:57:40.390Z,4.60
2018-03-21T21:00:09.207Z,4.43
2018-03-21T21:02:38.024Z,4.23
2018-03-21T21:05:06.834Z,4.33
2018-03-21T21:07:35.642Z,3.87
2018-03-21T21:10:04.466Z,3.67
2018-03-21T21:12:33.987Z,3.20
2018-03-21T21:15:02.875Z,3.03
2018-03-21T21:17:31.682Z,2.87
2018-03-21T21:20:00.484Z,2.73
2018-03-21T21:22:29.302Z,2.93
2018-03-21T21:24:58.086Z,2.90
2018-03-21T21:27:26.890Z,2.73
2018-03-21T21:29:55.677Z,2.67
2018-03-21T21:32:24.495Z,2.83
2018-03-21T21:34:53.286Z,2.97
2018-03-21T21:37:22.117Z,3.30
2018-03-21T21:39:51.002Z,3.63
2018-03-21T21:42:19.899Z,3.60
2018-03-21T21:44:48.705Z,3.90
2018-03-21T21:47:17.502Z,3.87
2018-03-21T21:49:46.383Z,4.10
2018-03-21T21:52:15.275Z,4.23
2018-03-21T21:54:44.112Z,3.80
2018-03-21T21:57:13.036Z,3.67
2018-03-21T21:59:41.837Z,4.30
2018-03-21T22:02:10.649Z,5.20
2018-03-21T22:04:39.446Z,4.70
2018-03-21T22:07:08.263Z,4.83
2018-03-21T22:09:37.050Z,4.20
2018-03-21T22:12:11.748Z,4.63
2018-03-21T22:14:40.550Z,4.40
2018-03-21T22:17:09.444Z,4.27
2018-03-21T22:19:38.224Z,4.07
2018-03-21T22:22:07.009Z,3.77
2018-03-21T22:24:35.834Z,3.73
2018-03-21T22:27:04.971Z,3.77
2018-03-21T22:29:33.822Z,3.73
2018-03-21T22:32:02.714Z,3.07
2018-03-21T22:34:32.146Z,3.87
2018-03-21T22:37:00.942Z,2.90
2018-03-21T22:39:29.823Z,2.90
2018-03-21T22:41:58.710Z,2.70
2018-03-21T22:44:27.514Z,2.97
2018-03-21T22:46:56.330Z,2.53
2018-03-21T22:49:25.129Z,2.33
2018-03-21T22:51:53.991Z,2.60
2018-03-21T22:54:22.939Z,2.07
2018-03-21T22:56:51.678Z,2.17
2018-03-21T22:59:20.574Z,2.40
2018-03-21T23:01:49.370Z,2.30
2018-03-21T23:04:18.162Z,2.47
2018-03-21T23:06:46.981Z,2.13
2018-03-21T23:09:15.838Z,2.17
2018-03-21T23:11:44.834Z,2.03
2018-03-21T23:14:13.722Z,2.10
2018-03-21T23:16:42.624Z,2.30
2018-03-21T23:19:11.425Z,2.20
2018-03-21T23:21:40.214Z,1.97
2018-03-21T23:24:09.017Z,2.57
2018-03-21T23:26:37.825Z,2.03
2018-03-21T23:29:06.986Z,2.20
2018-03-21T23:31:35.798Z,2.10
2018-03-21T23:34:04.678Z,2.30
2018-03-21T23:36:33.471Z,2.27
2018-03-21T23:39:02.303Z,2.07
2018-03-21T23:41:31.506Z,2.17
2018-03-21T23:44:00.311Z,2.67
2018-03-21T23:46:29.123Z,2.20
2018-03-21T23:48:57.927Z,2.40
2018-03-21T23:51:26.735Z,2.50
2018-03-21T23:53:55.527Z,2.67
2018-03-21T23:56:24.335Z,2.53
2018-03-21T23:58:53.143Z,2.63
